sensor_id;sensor_type;location;lat;lon;timestamp;temperature;humidity
26099;DHT22;13860;52.370;6.764;2024-02-28T00:02:43;4.50;85.10
26099;DHT22;13860;52.370;6.764;2024-02-28T00:05:49;4.50;85.10
26099;DHT22;13860;52.370;6.764;2024-02-28T00:08:56;4.50;85.10
26099;DHT22;13860;52.370;6.764;2024-02-28T00:12:02;4.50;85.10
26099;DHT22;13860;52.370;6.764;2024-02-28T00:15:10;4.50;85.10
26099;DHT22;13860;52.370;6.764;2024-02-28T00:18:18;4.50;85.20
26099;DHT22;13860;52.370;6.764;2024-02-28T00:21:26;4.50;85.20
26099;DHT22;13860;52.370;6.764;2024-02-28T00:24:32;4.50;85.20
26099;DHT22;13860;52.370;6.764;2024-02-28T00:27:39;4.50;85.10
26099;DHT22;13860;52.370;6.764;2024-02-28T00:30:45;4.40;85.10
26099;DHT22;13860;52.370;6.764;2024-02-28T00:33:55;4.40;85.00
26099;DHT22;13860;52.370;6.764;2024-02-28T00:37:00;4.30;85.00
26099;DHT22;13860;52.370;6.764;2024-02-28T00:40:09;4.30;85.00
26099;DHT22;13860;52.370;6.764;2024-02-28T00:43:15;4.30;85.00
26099;DHT22;13860;52.370;6.764;2024-02-28T00:46:22;4.30;85.10
26099;DHT22;13860;52.370;6.764;2024-02-28T00:49:30;4.20;85.00
26099;DHT22;13860;52.370;6.764;2024-02-28T00:52:39;4.20;85.10
26099;DHT22;13860;52.370;6.764;2024-02-28T00:55:45;4.20;85.10
26099;DHT22;13860;52.370;6.764;2024-02-28T00:58:52;4.20;85.10
26099;DHT22;13860;52.370;6.764;2024-02-28T01:01:58;4.20;85.70
26099;DHT22;13860;52.370;6.764;2024-02-28T01:05:08;4.20;85.20
26099;DHT22;13860;52.370;6.764;2024-02-28T01:08:14;4.20;85.20
26099;DHT22;13860;52.370;6.764;2024-02-28T01:11:21;4.20;85.30
26099;DHT22;13860;52.370;6.764;2024-02-28T01:14:27;4.10;85.20
26099;DHT22;13860;52.370;6.764;2024-02-28T01:17:34;4.20;85.30
26099;DHT22;13860;52.370;6.764;2024-02-28T01:20:43;4.10;85.10
26099;DHT22;13860;52.370;6.764;2024-02-28T01:23:51;4.10;85.20
26099;DHT22;13860;52.370;6.764;2024-02-28T01:26:56;4.10;85.20
26099;DHT22;13860;52.370;6.764;2024-02-28T01:30:05;4.10;85.30
26099;DHT22;13860;52.370;6.764;2024-02-28T01:33:11;4.10;85.30
26099;DHT22;13860;52.370;6.764;2024-02-28T01:36:22;4.10;85.30
26099;DHT22;13860;52.370;6.764;2024-02-28T01:39:29;4.10;85.30
26099;DHT22;13860;52.370;6.764;2024-02-28T01:42:36;4.00;85.30
26099;DHT22;13860;52.370;6.764;2024-02-28T01:45:44;4.10;85.40
26099;DHT22;13860;52.370;6.764;2024-02-28T01:48:52;4.00;85.30
26099;DHT22;13860;52.370;6.764;2024-02-28T01:52:01;4.00;85.30
26099;DHT22;13860;52.370;6.764;2024-02-28T01:55:09;4.00;85.30
26099;DHT22;13860;52.370;6.764;2024-02-28T01:58:14;4.00;85.30
26099;DHT22;13860;52.370;6.764;2024-02-28T02:01:22;4.00;85.40
26099;DHT22;13860;52.370;6.764;2024-02-28T02:04:28;4.00;85.40
26099;DHT22;13860;52.370;6.764;2024-02-28T02:07:39;4.00;85.40
26099;DHT22;13860;52.370;6.764;2024-02-28T02:10:45;4.00;85.40
26099;DHT22;13860;52.370;6.764;2024-02-28T02:13:53;4.00;85.40
26099;DHT22;13860;52.370;6.764;2024-02-28T02:16:59;3.90;85.40
26099;DHT22;13860;52.370;6.764;2024-02-28T02:20:10;4.00;85.40
26099;DHT22;13860;52.370;6.764;2024-02-28T02:23:19;4.00;85.50
26099;DHT22;13860;52.370;6.764;2024-02-28T02:26:27;3.90;85.50
26099;DHT22;13860;52.370;6.764;2024-02-28T02:29:32;4.00;85.50
26099;DHT22;13860;52.370;6.764;2024-02-28T02:32:40;4.00;85.50
26099;DHT22;13860;52.370;6.764;2024-02-28T02:35:45;3.90;85.50
26099;DHT22;13860;52.370;6.764;2024-02-28T02:38:56;3.90;85.50
26099;DHT22;13860;52.370;6.764;2024-02-28T02:42:01;4.00;85.60
26099;DHT22;13860;52.370;6.764;2024-02-28T02:45:09;3.90;85.60
26099;DHT22;13860;52.370;6.764;2024-02-28T02:48:15;3.90;85.60
26099;DHT22;13860;52.370;6.764;2024-02-28T02:51:23;3.90;85.60
26099;DHT22;13860;52.370;6.764;2024-02-28T02:54:31;3.90;85.60
26099;DHT22;13860;52.370;6.764;2024-02-28T02:57:40;3.90;85.60
26099;DHT22;13860;52.370;6.764;2024-02-28T03:00:46;3.90;85.60
26099;DHT22;13860;52.370;6.764;2024-02-28T03:03:54;3.90;85.60
26099;DHT22;13860;52.370;6.764;2024-02-28T03:07:00;4.00;85.70
26099;DHT22;13860;52.370;6.764;2024-02-28T03:10:10;4.00;85.80
26099;DHT22;13860;52.370;6.764;2024-02-28T03:13:15;4.00;85.70
26099;DHT22;13860;52.370;6.764;2024-02-28T03:16:23;4.00;85.80
26099;DHT22;13860;52.370;6.764;2024-02-28T03:19:28;4.00;85.90
26099;DHT22;13860;52.370;6.764;2024-02-28T03:22:36;4.00;86.40
26099;DHT22;13860;52.370;6.764;2024-02-28T03:25:44;4.00;85.80
26099;DHT22;13860;52.370;6.764;2024-02-28T03:28:51;4.00;85.80
26099;DHT22;13860;52.370;6.764;2024-02-28T03:31:58;4.00;85.80
26099;DHT22;13860;52.370;6.764;2024-02-28T03:35:07;4.00;85.80
26099;DHT22;13860;52.370;6.764;2024-02-28T03:38:12;4.00;85.80
26099;DHT22;13860;52.370;6.764;2024-02-28T03:41:22;4.00;85.80
26099;DHT22;13860;52.370;6.764;2024-02-28T03:44:28;4.00;85.80
26099;DHT22;13860;52.370;6.764;2024-02-28T03:47:35;4.00;85.90
26099;DHT22;13860;52.370;6.764;2024-02-28T03:50:41;4.00;85.90
26099;DHT22;13860;52.370;6.764;2024-02-28T03:53:48;4.00;85.80
26099;DHT22;13860;52.370;6.764;2024-02-28T03:56:57;4.00;85.90
26099;DHT22;13860;52.370;6.764;2024-02-28T04:00:06;4.00;85.90
26099;DHT22;13860;52.370;6.764;2024-02-28T04:03:14;4.00;85.90
26099;DHT22;13860;52.370;6.764;2024-02-28T04:06:22;4.00;85.90
26099;DHT22;13860;52.370;6.764;2024-02-28T04:09:27;4.00;86.00
26099;DHT22;13860;52.370;6.764;2024-02-28T04:12:37;4.00;86.00
26099;DHT22;13860;52.370;6.764;2024-02-28T04:15:43;4.00;86.00
26099;DHT22;13860;52.370;6.764;2024-02-28T04:18:52;4.00;86.00
26099;DHT22;13860;52.370;6.764;2024-02-28T04:21:58;4.00;85.90
26099;DHT22;13860;52.370;6.764;2024-02-28T04:25:07;4.00;86.00
26099;DHT22;13860;52.370;6.764;2024-02-28T04:28:15;4.00;86.00
26099;DHT22;13860;52.370;6.764;2024-02-28T04:31:23;4.00;85.90
26099;DHT22;13860;52.370;6.764;2024-02-28T04:34:28;4.00;85.90
26099;DHT22;13860;52.370;6.764;2024-02-28T04:37:36;4.00;86.00
26099;DHT22;13860;52.370;6.764;2024-02-28T04:40:42;4.00;86.00
26099;DHT22;13860;52.370;6.764;2024-02-28T04:43:52;4.00;86.00
26099;DHT22;13860;52.370;6.764;2024-02-28T04:46:57;4.00;86.00
26099;DHT22;13860;52.370;6.764;2024-02-28T04:50:06;4.00;86.00
26099;DHT22;13860;52.370;6.764;2024-02-28T04:53:11;4.00;86.00
26099;DHT22;13860;52.370;6.764;2024-02-28T04:56:19;4.00;86.10
26099;DHT22;13860;52.370;6.764;2024-02-28T04:59:27;4.00;86.10
26099;DHT22;13860;52.370;6.764;2024-02-28T05:02:34;4.00;86.10
26099;DHT22;13860;52.370;6.764;2024-02-28T05:05:40;4.00;86.20
26099;DHT22;13860;52.370;6.764;2024-02-28T05:08:48;4.00;86.10
26099;DHT22;13860;52.370;6.764;2024-02-28T05:11:53;4.00;86.10
26099;DHT22;13860;52.370;6.764;2024-02-28T05:15:04;4.00;86.10
26099;DHT22;13860;52.370;6.764;2024-02-28T05:18:10;4.10;86.20
26099;DHT22;13860;52.370;6.764;2024-02-28T05:21:17;4.00;86.10
26099;DHT22;13860;52.370;6.764;2024-02-28T05:24:23;4.00;86.10
26099;DHT22;13860;52.370;6.764;2024-02-28T05:27:30;4.00;86.10
26099;DHT22;13860;52.370;6.764;2024-02-28T05:30:38;4.00;86.10
26099;DHT22;13860;52.370;6.764;2024-02-28T05:33:51;4.00;86.10
26099;DHT22;13860;52.370;6.764;2024-02-28T05:36:57;4.00;86.20
26099;DHT22;13860;52.370;6.764;2024-02-28T05:40:07;4.10;86.20
26099;DHT22;13860;52.370;6.764;2024-02-28T05:43:15;4.00;86.10
26099;DHT22;13860;52.370;6.764;2024-02-28T05:46:25;4.00;86.10
26099;DHT22;13860;52.370;6.764;2024-02-28T05:49:31;4.00;86.10
26099;DHT22;13860;52.370;6.764;2024-02-28T05:52:38;4.00;86.10
26099;DHT22;13860;52.370;6.764;2024-02-28T05:55:46;4.00;86.10
26099;DHT22;13860;52.370;6.764;2024-02-28T05:58:53;4.00;86.20
26099;DHT22;13860;52.370;6.764;2024-02-28T06:02:01;4.00;86.20
26099;DHT22;13860;52.370;6.764;2024-02-28T06:05:09;4.00;86.20
26099;DHT22;13860;52.370;6.764;2024-02-28T06:08:15;4.00;86.20
26099;DHT22;13860;52.370;6.764;2024-02-28T06:11:22;4.00;86.20
26099;DHT22;13860;52.370;6.764;2024-02-28T06:14:28;4.00;86.30
26099;DHT22;13860;52.370;6.764;2024-02-28T06:17:38;4.00;86.20
26099;DHT22;13860;52.370;6.764;2024-02-28T06:20:44;4.00;86.30
26099;DHT22;13860;52.370;6.764;2024-02-28T06:23:51;4.00;86.30
26099;DHT22;13860;52.370;6.764;2024-02-28T06:26:57;4.00;86.30
26099;DHT22;13860;52.370;6.764;2024-02-28T06:30:06;4.00;86.30
26099;DHT22;13860;52.370;6.764;2024-02-28T06:33:15;4.00;86.20
26099;DHT22;13860;52.370;6.764;2024-02-28T06:36:23;4.00;86.20
26099;DHT22;13860;52.370;6.764;2024-02-28T06:39:29;4.00;86.90
26099;DHT22;13860;52.370;6.764;2024-02-28T06:42:36;4.00;86.30
26099;DHT22;13860;52.370;6.764;2024-02-28T06:45:42;4.00;86.40
26099;DHT22;13860;52.370;6.764;2024-02-28T06:48:55;4.00;86.30
26099;DHT22;13860;52.370;6.764;2024-02-28T06:52:01;4.00;86.30
26099;DHT22;13860;52.370;6.764;2024-02-28T06:55:09;4.00;86.30
26099;DHT22;13860;52.370;6.764;2024-02-28T06:58:16;4.00;86.30
26099;DHT22;13860;52.370;6.764;2024-02-28T07:01:24;4.00;87.00
26099;DHT22;13860;52.370;6.764;2024-02-28T07:04:32;4.00;86.40
26099;DHT22;13860;52.370;6.764;2024-02-28T07:07:41;4.00;86.40
26099;DHT22;13860;52.370;6.764;2024-02-28T07:10:46;4.00;86.40
26099;DHT22;13860;52.370;6.764;2024-02-28T07:13:58;4.00;86.40
26099;DHT22;13860;52.370;6.764;2024-02-28T07:17:04;4.00;86.50
26099;DHT22;13860;52.370;6.764;2024-02-28T07:20:15;4.00;86.50
26099;DHT22;13860;52.370;6.764;2024-02-28T07:23:20;4.00;86.50
26099;DHT22;13860;52.370;6.764;2024-02-28T07:26:28;4.10;86.60
26099;DHT22;13860;52.370;6.764;2024-02-28T07:29:33;4.10;86.60
26099;DHT22;13860;52.370;6.764;2024-02-28T07:32:41;4.10;86.60
26099;DHT22;13860;52.370;6.764;2024-02-28T07:35:52;4.10;86.70
26099;DHT22;13860;52.370;6.764;2024-02-28T07:38:59;4.10;86.70
26099;DHT22;13860;52.370;6.764;2024-02-28T07:42:05;4.20;86.70
26099;DHT22;13860;52.370;6.764;2024-02-28T07:45:13;4.20;86.70
26099;DHT22;13860;52.370;6.764;2024-02-28T07:48:18;4.20;86.70
26099;DHT22;13860;52.370;6.764;2024-02-28T07:51:29;4.30;86.80
26099;DHT22;13860;52.370;6.764;2024-02-28T07:54:34;4.30;86.90
26099;DHT22;13860;52.370;6.764;2024-02-28T07:57:42;4.30;86.90
26099;DHT22;13860;52.370;6.764;2024-02-28T08:00:48;4.30;86.90
26099;DHT22;13860;52.370;6.764;2024-02-28T08:03:57;4.40;87.00
26099;DHT22;13860;52.370;6.764;2024-02-28T08:07:05;4.40;86.90
26099;DHT22;13860;52.370;6.764;2024-02-28T08:10:13;4.40;87.00
26099;DHT22;13860;52.370;6.764;2024-02-28T08:13:19;4.50;87.10
26099;DHT22;13860;52.370;6.764;2024-02-28T08:16:26;4.50;87.10
26099;DHT22;13860;52.370;6.764;2024-02-28T08:19:34;4.60;87.20
26099;DHT22;13860;52.370;6.764;2024-02-28T08:22:44;4.60;87.20
26099;DHT22;13860;52.370;6.764;2024-02-28T08:25:50;4.60;87.20
26099;DHT22;13860;52.370;6.764;2024-02-28T08:28:57;4.70;87.30
26099;DHT22;13860;52.370;6.764;2024-02-28T08:32:03;4.80;87.40
26099;DHT22;13860;52.370;6.764;2024-02-28T08:35:11;4.80;87.50
26099;DHT22;13860;52.370;6.764;2024-02-28T08:38:19;4.80;87.40
26099;DHT22;13860;52.370;6.764;2024-02-28T08:41:27;4.90;87.60
26099;DHT22;13860;52.370;6.764;2024-02-28T08:44:32;5.00;87.60
26099;DHT22;13860;52.370;6.764;2024-02-28T08:47:41;5.00;87.50
26099;DHT22;13860;52.370;6.764;2024-02-28T08:50:47;5.10;87.60
26099;DHT22;13860;52.370;6.764;2024-02-28T08:53:57;5.10;87.50
26099;DHT22;13860;52.370;6.764;2024-02-28T08:57:03;5.20;87.60
26099;DHT22;13860;52.370;6.764;2024-02-28T09:00:16;5.20;87.60
26099;DHT22;13860;52.370;6.764;2024-02-28T09:03:22;5.30;87.50
26099;DHT22;13860;52.370;6.764;2024-02-28T09:06:29;5.30;87.50
26099;DHT22;13860;52.370;6.764;2024-02-28T09:09:41;5.40;87.60
26099;DHT22;13860;52.370;6.764;2024-02-28T09:12:49;5.40;87.60
26099;DHT22;13860;52.370;6.764;2024-02-28T09:15:55;5.50;87.70
26099;DHT22;13860;52.370;6.764;2024-02-28T09:19:03;5.50;87.70
26099;DHT22;13860;52.370;6.764;2024-02-28T09:22:09;5.60;87.70
26099;DHT22;13860;52.370;6.764;2024-02-28T09:25:19;5.70;87.80
26099;DHT22;13860;52.370;6.764;2024-02-28T09:28:29;5.70;87.80
26099;DHT22;13860;52.370;6.764;2024-02-28T09:31:36;5.80;87.70
26099;DHT22;13860;52.370;6.764;2024-02-28T09:34:42;5.80;87.70
26099;DHT22;13860;52.370;6.764;2024-02-28T09:37:49;5.90;87.80
26099;DHT22;13860;52.370;6.764;2024-02-28T09:40:58;5.90;87.80
26099;DHT22;13860;52.370;6.764;2024-02-28T09:44:06;6.00;87.80
26099;DHT22;13860;52.370;6.764;2024-02-28T09:47:12;6.00;87.70
26099;DHT22;13860;52.370;6.764;2024-02-28T09:50:20;6.10;87.70
26099;DHT22;13860;52.370;6.764;2024-02-28T09:53:27;6.20;87.70
26099;DHT22;13860;52.370;6.764;2024-02-28T09:56:37;6.20;87.70
26099;DHT22;13860;52.370;6.764;2024-02-28T09:59:43;6.20;87.60
26099;DHT22;13860;52.370;6.764;2024-02-28T10:02:59;6.30;87.70
26099;DHT22;13860;52.370;6.764;2024-02-28T10:06:06;6.30;87.60
26099;DHT22;13860;52.370;6.764;2024-02-28T10:09:16;6.40;87.70
26099;DHT22;13860;52.370;6.764;2024-02-28T10:12:24;6.40;87.60
26099;DHT22;13860;52.370;6.764;2024-02-28T10:15:32;6.40;87.60
26099;DHT22;13860;52.370;6.764;2024-02-28T10:18:38;6.50;88.20
26099;DHT22;13860;52.370;6.764;2024-02-28T10:21:46;6.50;87.60
26099;DHT22;13860;52.370;6.764;2024-02-28T10:24:57;6.50;87.60
26099;DHT22;13860;52.370;6.764;2024-02-28T10:28:07;6.60;87.60
26099;DHT22;13860;52.370;6.764;2024-02-28T10:31:14;6.60;87.60
26099;DHT22;13860;52.370;6.764;2024-02-28T10:34:21;6.70;87.60
26099;DHT22;13860;52.370;6.764;2024-02-28T10:37:29;6.70;87.60
26099;DHT22;13860;52.370;6.764;2024-02-28T10:40:37;6.70;87.50
26099;DHT22;13860;52.370;6.764;2024-02-28T10:43:46;6.70;87.40
26099;DHT22;13860;52.370;6.764;2024-02-28T10:46:55;6.80;87.50
26099;DHT22;13860;52.370;6.764;2024-02-28T10:50:01;6.80;87.50
26099;DHT22;13860;52.370;6.764;2024-02-28T10:53:14;6.80;87.60
26099;DHT22;13860;52.370;6.764;2024-02-28T10:56:20;6.80;87.40
26099;DHT22;13860;52.370;6.764;2024-02-28T10:59:31;6.90;87.40
26099;DHT22;13860;52.370;6.764;2024-02-28T11:02:38;6.90;87.50
26099;DHT22;13860;52.370;6.764;2024-02-28T11:05:48;6.90;87.40
26099;DHT22;13860;52.370;6.764;2024-02-28T11:08:53;7.00;87.30
26099;DHT22;13860;52.370;6.764;2024-02-28T11:12:04;7.00;87.30
26099;DHT22;13860;52.370;6.764;2024-02-28T11:15:17;7.00;87.30
26099;DHT22;13860;52.370;6.764;2024-02-28T11:18:24;7.10;87.30
26099;DHT22;13860;52.370;6.764;2024-02-28T11:21:34;7.10;87.30
26099;DHT22;13860;52.370;6.764;2024-02-28T11:24:44;7.10;87.20
26099;DHT22;13860;52.370;6.764;2024-02-28T11:27:50;7.20;87.30
26099;DHT22;13860;52.370;6.764;2024-02-28T11:31:00;7.20;87.20
26099;DHT22;13860;52.370;6.764;2024-02-28T11:34:06;7.20;87.20
26099;DHT22;13860;52.370;6.764;2024-02-28T11:37:14;7.20;87.20
26099;DHT22;13860;52.370;6.764;2024-02-28T11:40:19;7.30;87.20
26099;DHT22;13860;52.370;6.764;2024-02-28T11:43:27;7.30;87.20
26099;DHT22;13860;52.370;6.764;2024-02-28T11:46:48;7.30;87.20
26099;DHT22;13860;52.370;6.764;2024-02-28T11:49:58;7.40;87.20
26099;DHT22;13860;52.370;6.764;2024-02-28T11:53:06;7.40;87.10
26099;DHT22;13860;52.370;6.764;2024-02-28T11:56:14;7.40;87.20
26099;DHT22;13860;52.370;6.764;2024-02-28T11:59:23;7.40;87.20
26099;DHT22;13860;52.370;6.764;2024-02-28T12:02:33;7.50;87.40
26099;DHT22;13860;52.370;6.764;2024-02-28T12:05:43;7.50;87.30
26099;DHT22;13860;52.370;6.764;2024-02-28T12:08:51;7.60;87.30
26099;DHT22;13860;52.370;6.764;2024-02-28T12:12:00;7.60;87.90
26099;DHT22;13860;52.370;6.764;2024-02-28T12:15:09;7.70;87.30
26099;DHT22;13860;52.370;6.764;2024-02-28T12:18:17;7.70;87.30
26099;DHT22;13860;52.370;6.764;2024-02-28T12:21:25;7.70;87.30
26099;DHT22;13860;52.370;6.764;2024-02-28T12:24:31;7.80;87.40
26099;DHT22;13860;52.370;6.764;2024-02-28T12:27:38;7.80;87.40
26099;DHT22;13860;52.370;6.764;2024-02-28T12:30:44;7.90;87.40
26099;DHT22;13860;52.370;6.764;2024-02-28T12:33:54;8.00;87.40
26099;DHT22;13860;52.370;6.764;2024-02-28T12:37:00;8.00;87.40
26099;DHT22;13860;52.370;6.764;2024-02-28T12:40:10;8.10;87.50
26099;DHT22;13860;52.370;6.764;2024-02-28T12:43:16;8.20;87.50
26099;DHT22;13860;52.370;6.764;2024-02-28T12:46:24;8.20;87.50
26099;DHT22;13860;52.370;6.764;2024-02-28T12:49:32;8.30;87.50
26099;DHT22;13860;52.370;6.764;2024-02-28T12:52:39;8.40;87.50
26099;DHT22;13860;52.370;6.764;2024-02-28T12:55:45;8.40;87.40
26099;DHT22;13860;52.370;6.764;2024-02-28T12:58:53;8.50;87.40
26099;DHT22;13860;52.370;6.764;2024-02-28T13:01:58;8.60;87.40
26099;DHT22;13860;52.370;6.764;2024-02-28T13:05:10;8.60;87.40
26099;DHT22;13860;52.370;6.764;2024-02-28T13:08:16;8.70;87.40
26099;DHT22;13860;52.370;6.764;2024-02-28T13:11:24;8.70;87.30
26099;DHT22;13860;52.370;6.764;2024-02-28T13:14:30;8.80;87.40
26099;DHT22;13860;52.370;6.764;2024-02-28T13:17:38;8.80;87.20
26099;DHT22;13860;52.370;6.764;2024-02-28T13:20:46;8.80;87.20
26099;DHT22;13860;52.370;6.764;2024-02-28T13:23:54;8.90;87.20
26099;DHT22;13860;52.370;6.764;2024-02-28T13:27:00;8.90;87.20
26099;DHT22;13860;52.370;6.764;2024-02-28T13:30:08;9.00;87.20
26099;DHT22;13860;52.370;6.764;2024-02-28T13:33:14;9.00;87.10
26099;DHT22;13860;52.370;6.764;2024-02-28T13:36:24;9.10;87.10
26099;DHT22;13860;52.370;6.764;2024-02-28T13:39:30;9.10;87.00
26099;DHT22;13860;52.370;6.764;2024-02-28T13:42:39;9.10;87.00
26099;DHT22;13860;52.370;6.764;2024-02-28T13:45:47;9.20;86.90
26099;DHT22;13860;52.370;6.764;2024-02-28T13:48:56;9.20;86.80
26099;DHT22;13860;52.370;6.764;2024-02-28T13:52:05;9.20;86.80
26099;DHT22;13860;52.370;6.764;2024-02-28T13:55:12;9.30;86.70
26099;DHT22;13860;52.370;6.764;2024-02-28T13:58:18;9.30;86.60
26099;DHT22;13860;52.370;6.764;2024-02-28T14:01:26;9.20;86.60
26099;DHT22;13860;52.370;6.764;2024-02-28T14:04:32;9.30;86.60
26099;DHT22;13860;52.370;6.764;2024-02-28T14:07:42;9.30;86.50
26099;DHT22;13860;52.370;6.764;2024-02-28T14:10:47;9.30;87.10
26099;DHT22;13860;52.370;6.764;2024-02-28T14:13:55;9.30;86.40
26099;DHT22;13860;52.370;6.764;2024-02-28T14:17:01;9.30;86.40
26099;DHT22;13860;52.370;6.764;2024-02-28T14:20:10;9.30;86.90
26099;DHT22;13860;52.370;6.764;2024-02-28T14:23:18;9.30;86.40
26099;DHT22;13860;52.370;6.764;2024-02-28T14:26:25;9.30;86.30
26099;DHT22;13860;52.370;6.764;2024-02-28T14:29:31;9.30;86.20
26099;DHT22;13860;52.370;6.764;2024-02-28T14:32:40;9.30;86.10
26099;DHT22;13860;52.370;6.764;2024-02-28T14:35:46;9.30;86.20
26099;DHT22;13860;52.370;6.764;2024-02-28T14:38:56;9.30;86.20
26099;DHT22;13860;52.370;6.764;2024-02-28T14:42:01;9.30;86.10
26099;DHT22;13860;52.370;6.764;2024-02-28T14:45:10;9.30;86.10
26099;DHT22;13860;52.370;6.764;2024-02-28T14:48:17;9.30;86.10
26099;DHT22;13860;52.370;6.764;2024-02-28T14:51:24;9.30;86.10
26099;DHT22;13860;52.370;6.764;2024-02-28T14:54:35;9.30;86.10
26099;DHT22;13860;52.370;6.764;2024-02-28T14:57:43;9.30;86.00
26099;DHT22;13860;52.370;6.764;2024-02-28T15:00:48;9.30;86.00
26099;DHT22;13860;52.370;6.764;2024-02-28T15:03:56;9.30;86.00
26099;DHT22;13860;52.370;6.764;2024-02-28T15:07:02;9.30;86.00
26099;DHT22;13860;52.370;6.764;2024-02-28T15:10:12;9.30;85.90
26099;DHT22;13860;52.370;6.764;2024-02-28T15:13:19;9.30;85.90
26099;DHT22;13860;52.370;6.764;2024-02-28T15:16:28;9.30;85.90
26099;DHT22;13860;52.370;6.764;2024-02-28T15:19:33;9.30;85.90
26099;DHT22;13860;52.370;6.764;2024-02-28T15:22:41;9.30;85.90
26099;DHT22;13860;52.370;6.764;2024-02-28T15:25:50;9.20;85.80
26099;DHT22;13860;52.370;6.764;2024-02-28T15:28:59;9.20;85.80
26099;DHT22;13860;52.370;6.764;2024-02-28T15:32:05;9.20;85.80
26099;DHT22;13860;52.370;6.764;2024-02-28T15:35:13;9.20;85.80
26099;DHT22;13860;52.370;6.764;2024-02-28T15:38:19;9.20;85.80
26099;DHT22;13860;52.370;6.764;2024-02-28T15:41:29;9.20;85.80
26099;DHT22;13860;52.370;6.764;2024-02-28T15:44:34;9.10;85.70
26099;DHT22;13860;52.370;6.764;2024-02-28T15:47:42;9.10;85.70
26099;DHT22;13860;52.370;6.764;2024-02-28T15:50:49;9.20;85.70
26099;DHT22;13860;52.370;6.764;2024-02-28T15:53:57;9.10;85.70
26099;DHT22;13860;52.370;6.764;2024-02-28T15:57:06;9.10;85.70
26099;DHT22;13860;52.370;6.764;2024-02-28T16:00:15;9.10;85.70
26099;DHT22;13860;52.370;6.764;2024-02-28T16:03:21;9.10;85.60
26099;DHT22;13860;52.370;6.764;2024-02-28T16:06:28;9.10;85.60
26099;DHT22;13860;52.370;6.764;2024-02-28T16:09:41;9.10;85.60
26099;DHT22;13860;52.370;6.764;2024-02-28T16:12:52;9.10;85.60
26099;DHT22;13860;52.370;6.764;2024-02-28T16:15:58;9.10;85.60
26099;DHT22;13860;52.370;6.764;2024-02-28T16:19:05;9.10;85.70
26099;DHT22;13860;52.370;6.764;2024-02-28T16:22:24;9.00;85.60
26099;DHT22;13860;52.370;6.764;2024-02-28T16:25:31;9.10;85.60
26099;DHT22;13860;52.370;6.764;2024-02-28T16:28:39;9.10;85.60
26099;DHT22;13860;52.370;6.764;2024-02-28T16:31:47;9.00;85.50
26099;DHT22;13860;52.370;6.764;2024-02-28T16:34:53;9.00;85.50
26099;DHT22;13860;52.370;6.764;2024-02-28T16:38:00;9.10;85.60
26099;DHT22;13860;52.370;6.764;2024-02-28T16:41:06;9.00;85.50
26099;DHT22;13860;52.370;6.764;2024-02-28T16:44:16;9.10;85.60
26099;DHT22;13860;52.370;6.764;2024-02-28T16:47:22;9.10;85.50
26099;DHT22;13860;52.370;6.764;2024-02-28T16:50:29;9.00;85.50
26099;DHT22;13860;52.370;6.764;2024-02-28T16:53:35;9.00;85.50
26099;DHT22;13860;52.370;6.764;2024-02-28T16:56:42;9.00;85.50
26099;DHT22;13860;52.370;6.764;2024-02-28T16:59:50;9.00;85.50
26099;DHT22;13860;52.370;6.764;2024-02-28T17:02:58;9.00;85.30
26099;DHT22;13860;52.370;6.764;2024-02-28T17:06:04;9.00;86.00
26099;DHT22;13860;52.370;6.764;2024-02-28T17:09:11;8.90;85.30
26099;DHT22;13860;52.370;6.764;2024-02-28T17:12:17;8.90;85.30
26099;DHT22;13860;52.370;6.764;2024-02-28T17:15:27;8.90;85.30
26099;DHT22;13860;52.370;6.764;2024-02-28T17:18:33;8.90;85.30
26099;DHT22;13860;52.370;6.764;2024-02-28T17:21:40;8.80;85.30
26099;DHT22;13860;52.370;6.764;2024-02-28T17:24:46;8.80;85.30
26099;DHT22;13860;52.370;6.764;2024-02-28T17:27:54;8.80;85.30
26099;DHT22;13860;52.370;6.764;2024-02-28T17:31:03;8.80;85.30
26099;DHT22;13860;52.370;6.764;2024-02-28T17:34:11;8.70;85.20
26099;DHT22;13860;52.370;6.764;2024-02-28T17:37:16;8.70;85.30
26099;DHT22;13860;52.370;6.764;2024-02-28T17:40:26;8.70;85.20
26099;DHT22;13860;52.370;6.764;2024-02-28T17:43:32;8.70;85.20
26099;DHT22;13860;52.370;6.764;2024-02-28T17:46:43;8.70;85.30
26099;DHT22;13860;52.370;6.764;2024-02-28T17:49:48;8.60;85.20
26099;DHT22;13860;52.370;6.764;2024-02-28T17:52:56;8.60;85.10
26099;DHT22;13860;52.370;6.764;2024-02-28T17:56:01;8.60;85.20
26099;DHT22;13860;52.370;6.764;2024-02-28T17:59:10;8.50;85.20
26099;DHT22;13860;52.370;6.764;2024-02-28T18:02:18;8.50;85.10
26099;DHT22;13860;52.370;6.764;2024-02-28T18:05:28;8.50;85.20
26099;DHT22;13860;52.370;6.764;2024-02-28T18:08:34;8.50;85.30
26099;DHT22;13860;52.370;6.764;2024-02-28T18:11:42;8.40;85.20
26099;DHT22;13860;52.370;6.764;2024-02-28T18:14:47;8.40;85.20
26099;DHT22;13860;52.370;6.764;2024-02-28T18:17:57;8.40;85.20
26099;DHT22;13860;52.370;6.764;2024-02-28T18:21:03;8.30;85.10
26099;DHT22;13860;52.370;6.764;2024-02-28T18:24:11;8.30;85.10
26099;DHT22;13860;52.370;6.764;2024-02-28T18:27:16;8.30;85.10
26099;DHT22;13860;52.370;6.764;2024-02-28T18:30:24;8.30;85.20
26099;DHT22;13860;52.370;6.764;2024-02-28T18:33:32;8.30;85.20
26099;DHT22;13860;52.370;6.764;2024-02-28T18:36:40;8.20;85.10
26099;DHT22;13860;52.370;6.764;2024-02-28T18:39:45;8.20;85.10
26099;DHT22;13860;52.370;6.764;2024-02-28T18:42:53;8.20;85.20
26099;DHT22;13860;52.370;6.764;2024-02-28T18:46:00;8.20;85.10
26099;DHT22;13860;52.370;6.764;2024-02-28T18:49:10;8.10;85.10
26099;DHT22;13860;52.370;6.764;2024-02-28T18:52:16;8.20;85.20
26099;DHT22;13860;52.370;6.764;2024-02-28T18:55:24;8.10;85.20
26099;DHT22;13860;52.370;6.764;2024-02-28T18:58:29;8.10;85.20
26099;DHT22;13860;52.370;6.764;2024-02-28T19:01:38;8.10;85.20
26099;DHT22;13860;52.370;6.764;2024-02-28T19:04:46;8.10;85.20
26099;DHT22;13860;52.370;6.764;2024-02-28T19:07:54;8.10;85.20
26099;DHT22;13860;52.370;6.764;2024-02-28T19:10:59;8.10;85.20
26099;DHT22;13860;52.370;6.764;2024-02-28T19:14:07;8.10;85.10
26099;DHT22;13860;52.370;6.764;2024-02-28T19:17:12;8.10;85.10
26099;DHT22;13860;52.370;6.764;2024-02-28T19:20:23;8.10;85.20
26099;DHT22;13860;52.370;6.764;2024-02-28T19:23:29;8.10;85.20
26099;DHT22;13860;52.370;6.764;2024-02-28T19:26:36;8.10;85.20
26099;DHT22;13860;52.370;6.764;2024-02-28T19:29:42;8.10;85.30
26099;DHT22;13860;52.370;6.764;2024-02-28T19:32:50;8.10;85.20
26099;DHT22;13860;52.370;6.764;2024-02-28T19:36:01;8.10;85.20
26099;DHT22;13860;52.370;6.764;2024-02-28T19:39:08;8.10;85.10
26099;DHT22;13860;52.370;6.764;2024-02-28T19:42:14;8.10;85.10
26099;DHT22;13860;52.370;6.764;2024-02-28T19:45:21;8.10;85.10
26099;DHT22;13860;52.370;6.764;2024-02-28T19:48:27;8.10;85.20
26099;DHT22;13860;52.370;6.764;2024-02-28T19:51:37;8.10;85.10
26099;DHT22;13860;52.370;6.764;2024-02-28T19:54:45;8.10;85.10
26099;DHT22;13860;52.370;6.764;2024-02-28T19:57:52;8.00;85.10
26099;DHT22;13860;52.370;6.764;2024-02-28T20:00:58;8.00;85.10
26099;DHT22;13860;52.370;6.764;2024-02-28T20:04:06;8.10;85.20